createdAt,value
2023-03-21T08:34:28.871Z,36.49
2023-03-21T08:34:40.209Z,36.31
2023-03-21T08:34:51.790Z,36.08
2023-03-21T08:35:03.113Z,36.01
2023-03-21T08:35:14.732Z,35.95
2023-03-21T08:35:26.073Z,35.92
2023-03-21T08:35:40.831Z,35.86
2023-03-21T08:35:48.160Z,35.89
2023-03-21T08:35:59.491Z,35.87
2023-03-21T08:36:11.118Z,35.84
2023-03-21T08:36:22.500Z,35.80
2023-03-21T08:36:34.092Z,35.80
2023-03-21T08:36:45.421Z,35.79
2023-03-21T08:36:57.002Z,35.78
2023-03-21T08:37:08.326Z,35.78
2023-03-21T08:37:19.920Z,35.77
2023-03-21T08:37:31.244Z,35.74
2023-03-21T08:37:42.846Z,35.73
2023-03-21T08:37:54.169Z,35.71
2023-03-21T08:38:05.764Z,35.70
2023-03-21T08:38:17.151Z,35.69
2023-03-21T08:38:28.707Z,35.67
2023-03-21T08:38:40.030Z,35.69
2023-03-21T08:38:51.613Z,35.67
2023-03-21T08:39:02.936Z,35.68
2023-03-21T08:39:14.542Z,35.67
2023-03-21T08:39:25.913Z,35.66
2023-03-21T08:39:37.570Z,35.63
2023-03-21T08:39:48.922Z,35.65
2023-03-21T08:40:00.614Z,35.62
2023-03-21T08:40:11.964Z,35.64
2023-03-21T08:40:23.585Z,35.65
2023-03-21T08:40:34.909Z,35.64
2023-03-21T08:40:46.529Z,35.62
2023-03-21T08:41:00.148Z,35.62
2023-03-21T08:41:09.418Z,35.68
2023-03-21T08:41:21.021Z,35.64
2023-03-21T08:41:32.374Z,35.63
2023-03-21T08:41:43.952Z,35.64
2023-03-21T08:41:55.298Z,35.60
2023-03-21T08:42:06.902Z,35.59
2023-03-21T08:42:18.235Z,35.61
2023-03-21T08:42:29.814Z,35.60
2023-03-21T08:42:41.164Z,35.60
2023-03-21T08:42:52.743Z,35.60
2023-03-21T08:43:04.096Z,35.59
2023-03-21T08:43:15.712Z,35.59
2023-03-21T08:43:27.045Z,35.60
2023-03-21T08:43:38.630Z,35.57
2023-03-21T08:43:49.973Z,35.59
2023-03-21T08:44:01.561Z,35.61
2023-03-21T08:44:12.922Z,35.60
2023-03-21T08:44:24.501Z,35.59
2023-03-21T08:44:35.833Z,35.60
2023-03-21T08:44:47.441Z,35.58
2023-03-21T08:44:58.840Z,35.60
2023-03-21T08:45:10.441Z,35.59
2023-03-21T08:45:21.760Z,35.60
2023-03-21T08:45:33.383Z,35.57
2023-03-21T08:45:44.764Z,35.59
2023-03-21T08:45:56.374Z,35.60
2023-03-21T08:46:07.685Z,35.59
2023-03-21T08:46:19.290Z,35.58
2023-03-21T08:46:30.698Z,35.57
2023-03-21T08:46:42.338Z,35.58
2023-03-21T08:46:53.682Z,35.59
2023-03-21T08:47:05.254Z,35.59
2023-03-21T08:47:16.607Z,35.57
2023-03-21T08:47:28.183Z,35.55
2023-03-21T08:47:39.590Z,35.59
2023-03-21T08:47:51.255Z,35.57
2023-03-21T08:48:02.588Z,35.58
2023-03-21T08:48:14.239Z,35.59
2023-03-21T08:48:25.691Z,35.57
2023-03-21T08:48:37.279Z,35.57
2023-03-21T08:48:48.646Z,35.56
2023-03-21T08:49:00.223Z,35.56
2023-03-21T08:49:11.643Z,35.57
2023-03-21T08:49:23.275Z,35.58
2023-03-21T08:49:34.619Z,35.57
2023-03-21T08:49:46.226Z,35.58
2023-03-21T08:49:59.151Z,35.59
2023-03-21T08:50:08.430Z,35.61
2023-03-21T08:50:20.005Z,35.58
2023-03-21T08:50:31.351Z,35.59
2023-03-21T08:50:42.934Z,35.56
2023-03-21T08:50:54.267Z,35.58
2023-03-21T08:51:05.871Z,35.58
2023-03-21T08:51:17.175Z,35.57
2023-03-21T08:51:28.756Z,35.57
2023-03-21T08:51:40.083Z,35.59
2023-03-21T08:51:51.669Z,35.57
2023-03-21T08:52:03.001Z,35.57
2023-03-21T08:52:14.592Z,35.58
2023-03-21T08:52:25.904Z,35.58
2023-03-21T08:52:37.482Z,35.58
2023-03-21T08:52:48.879Z,35.60
2023-03-21T08:53:00.462Z,35.56
2023-03-21T08:53:11.768Z,35.59
2023-03-21T08:53:23.374Z,35.58
2023-03-21T08:53:34.695Z,35.55
2023-03-21T08:53:46.305Z,35.57
2023-03-21T08:53:57.638Z,35.59
2023-03-21T08:54:09.227Z,35.59
2023-03-21T08:54:20.604Z,35.59
2023-03-21T08:54:32.172Z,35.59
2023-03-21T08:54:43.500Z,35.57
2023-03-21T08:54:55.105Z,35.57
2023-03-21T08:55:06.430Z,35.56
2023-03-21T08:55:18.005Z,35.56
2023-03-21T08:55:29.337Z,35.57
2023-03-21T08:55:40.928Z,35.53
2023-03-21T08:55:52.250Z,35.57
2023-03-21T08:56:03.850Z,35.59
2023-03-21T08:56:15.196Z,35.59
2023-03-21T08:56:26.774Z,35.59
2023-03-21T08:56:38.091Z,35.57
2023-03-21T08:56:49.671Z,35.57
2023-03-21T08:57:01.021Z,35.58
2023-03-21T08:57:12.687Z,35.56
2023-03-21T08:57:23.987Z,35.58
2023-03-21T08:57:35.561Z,35.56
2023-03-21T08:57:46.927Z,35.58
2023-03-21T08:57:58.552Z,35.57
2023-03-21T08:58:09.881Z,35.57
2023-03-21T08:58:21.455Z,35.55
2023-03-21T08:58:32.788Z,35.56
2023-03-21T08:58:44.407Z,35.57
2023-03-21T08:58:55.740Z,35.60
2023-03-21T08:59:07.353Z,35.56
2023-03-21T08:59:18.677Z,35.56
2023-03-21T08:59:30.270Z,35.57
2023-03-21T08:59:41.608Z,35.57
2023-03-21T08:59:53.206Z,35.57
2023-03-21T09:00:04.564Z,35.57
2023-03-21T09:00:16.172Z,35.57
2023-03-21T09:00:27.545Z,35.57
2023-03-21T09:00:39.126Z,35.58
2023-03-21T09:00:50.476Z,35.60
2023-03-21T09:01:02.078Z,35.59
2023-03-21T09:01:13.440Z,35.56
2023-03-21T09:01:25.101Z,35.56
2023-03-21T09:01:36.555Z,35.56
2023-03-21T09:01:48.230Z,35.58
2023-03-21T09:01:59.590Z,35.55
2023-03-21T09:02:11.356Z,35.57
2023-03-21T09:02:22.666Z,35.58
2023-03-21T09:02:34.267Z,35.55
2023-03-21T09:02:45.621Z,35.57
2023-03-21T09:02:57.204Z,35.56
2023-03-21T09:03:11.213Z,35.58
2023-03-21T09:03:18.714Z,35.66
2023-03-21T09:03:30.055Z,35.63
2023-03-21T09:03:41.645Z,35.60
2023-03-21T09:03:52.996Z,35.58
2023-03-21T09:04:04.572Z,35.56
2023-03-21T09:04:15.910Z,35.58
2023-03-21T09:04:27.523Z,35.58
2023-03-21T09:04:38.900Z,35.59
2023-03-21T09:04:50.555Z,35.57
2023-03-21T09:05:01.932Z,35.58
2023-03-21T09:05:13.534Z,35.57
2023-03-21T09:05:24.896Z,35.57
2023-03-21T09:05:36.813Z,35.57
2023-03-21T09:05:48.513Z,35.55
2023-03-21T09:05:59.860Z,35.57
2023-03-21T09:06:11.430Z,35.53
2023-03-21T09:06:22.785Z,35.56
2023-03-21T09:06:34.371Z,35.56
2023-03-21T09:06:45.717Z,35.58
2023-03-21T09:06:57.300Z,35.55
2023-03-21T09:07:08.624Z,35.56
2023-03-21T09:07:20.212Z,35.56
2023-03-21T09:07:31.538Z,35.56
2023-03-21T09:07:43.120Z,35.57
2023-03-21T09:07:54.492Z,35.56
2023-03-21T09:08:06.058Z,35.56
2023-03-21T09:08:17.400Z,35.55
2023-03-21T09:08:29.027Z,35.56
2023-03-21T09:08:40.362Z,35.56
2023-03-21T09:08:51.965Z,35.55
2023-03-21T09:09:03.327Z,35.56
2023-03-21T09:09:14.940Z,35.57
2023-03-21T09:09:26.256Z,35.56
2023-03-21T09:09:37.845Z,35.53
2023-03-21T09:09:58.143Z,35.59
2023-03-21T09:10:21.839Z,35.68
2023-03-21T09:10:22.650Z,35.70
2023-03-21T09:10:25.121Z,35.70
2023-03-21T09:10:36.448Z,35.63
2023-03-21T09:10:48.041Z,35.58
2023-03-21T09:10:59.397Z,35.58
2023-03-21T09:11:10.986Z,35.56
2023-03-21T09:11:22.295Z,35.55
2023-03-21T09:11:33.880Z,35.54
2023-03-21T09:11:45.221Z,35.56
2023-03-21T09:11:56.830Z,35.54
2023-03-21T09:12:08.169Z,35.54
2023-03-21T09:12:19.770Z,35.56
2023-03-21T09:12:31.123Z,35.57
2023-03-21T09:12:42.717Z,35.54
2023-03-21T09:12:54.058Z,35.56
2023-03-21T09:13:05.662Z,35.55
2023-03-21T09:13:16.996Z,35.55
2023-03-21T09:13:28.581Z,35.56
2023-03-21T09:13:39.945Z,35.57
2023-03-21T09:13:51.538Z,35.55
2023-03-21T09:14:02.893Z,35.56
2023-03-21T09:14:14.472Z,35.54
2023-03-21T09:14:28.712Z,35.57
2023-03-21T09:14:36.347Z,35.64
2023-03-21T09:14:47.713Z,35.61
2023-03-21T09:14:59.294Z,35.56
2023-03-21T09:15:10.614Z,35.56
2023-03-21T09:15:22.341Z,35.55
2023-03-21T09:15:33.700Z,35.56
2023-03-21T09:15:45.299Z,35.55
2023-03-21T09:15:56.672Z,35.56
2023-03-21T09:16:08.426Z,35.53
2023-03-21T09:16:19.875Z,35.55
2023-03-21T09:16:31.522Z,35.55
2023-03-21T09:16:42.860Z,35.56
2023-03-21T09:16:54.447Z,35.53
2023-03-21T09:17:05.772Z,35.55
2023-03-21T09:17:18.852Z,35.55
2023-03-21T09:17:27.700Z,35.58
2023-03-21T09:17:39.035Z,35.54
2023-03-21T09:17:50.632Z,35.56
2023-03-21T09:18:01.987Z,35.56
2023-03-21T09:18:13.638Z,35.53
2023-03-21T09:18:24.957Z,35.54
2023-03-21T09:18:36.548Z,35.54
2023-03-21T09:18:47.923Z,35.54
2023-03-21T09:18:59.514Z,35.52
2023-03-21T09:19:10.838Z,35.51
2023-03-21T09:19:22.458Z,35.56
2023-03-21T09:19:33.812Z,35.52
2023-03-21T09:19:45.424Z,35.52
2023-03-21T09:19:56.733Z,35.54
2023-03-21T09:20:08.304Z,35.53
2023-03-21T09:20:19.634Z,35.53
2023-03-21T09:20:31.545Z,35.53
2023-03-21T09:20:42.868Z,35.53
2023-03-21T09:20:54.447Z,35.51
2023-03-21T09:21:05.774Z,35.55
2023-03-21T09:21:17.363Z,35.52
2023-03-21T09:21:28.699Z,35.51
2023-03-21T09:21:40.288Z,35.51
2023-03-21T09:21:51.609Z,35.53
2023-03-21T09:22:03.221Z,35.53
2023-03-21T09:22:14.558Z,35.51
2023-03-21T09:22:26.157Z,35.51
2023-03-21T09:22:37.474Z,35.51
2023-03-21T09:22:49.065Z,35.51
2023-03-21T09:23:00.392Z,35.51
2023-03-21T09:23:11.982Z,35.53
2023-03-21T09:23:23.300Z,35.51
2023-03-21T09:23:34.896Z,35.50
2023-03-21T09:23:46.246Z,35.50
2023-03-21T09:23:57.853Z,35.51
2023-03-21T09:24:09.205Z,35.51
2023-03-21T09:24:20.783Z,35.51
2023-03-21T09:24:32.117Z,35.52
2023-03-21T09:24:43.685Z,35.52
2023-03-21T09:24:55.042Z,35.50
2023-03-21T09:25:06.621Z,35.48
2023-03-21T09:25:17.974Z,35.49
2023-03-21T09:25:29.605Z,35.48
2023-03-21T09:25:40.999Z,35.51
2023-03-21T09:25:52.546Z,35.51
2023-03-21T09:26:03.876Z,35.49
2023-03-21T09:26:15.462Z,35.51
2023-03-21T09:26:26.794Z,35.50
2023-03-21T09:26:38.390Z,35.49
2023-03-21T09:26:49.740Z,35.50
2023-03-21T09:27:01.326Z,35.48
2023-03-21T09:27:12.668Z,35.50
2023-03-21T09:27:24.273Z,35.50
2023-03-21T09:27:36.029Z,35.49
2023-03-21T09:27:47.587Z,35.50
2023-03-21T09:27:58.923Z,35.49
2023-03-21T09:28:10.535Z,35.47
2023-03-21T09:28:21.884Z,35.48
2023-03-21T09:28:33.494Z,35.48
2023-03-21T09:28:44.825Z,35.48
2023-03-21T09:28:56.414Z,35.44
2023-03-21T09:29:07.786Z,35.46
2023-03-21T09:29:19.380Z,35.48
2023-03-21T09:29:30.727Z,35.47
2023-03-21T09:29:42.324Z,35.46
2023-03-21T09:29:53.665Z,35.47
2023-03-21T09:30:05.269Z,35.47
2023-03-21T09:30:16.587Z,35.47
2023-03-21T09:30:28.292Z,35.46
2023-03-21T09:30:39.658Z,35.47
2023-03-21T09:30:51.248Z,35.48
2023-03-21T09:31:02.691Z,35.48
2023-03-21T09:31:14.375Z,35.49
2023-03-21T09:31:25.710Z,35.50
2023-03-21T09:31:37.347Z,35.48
2023-03-21T09:31:48.778Z,35.47
2023-03-21T09:32:00.365Z,35.47
2023-03-21T09:32:11.690Z,35.48
2023-03-21T09:32:23.282Z,35.48
2023-03-21T09:32:34.614Z,35.48
2023-03-21T09:32:46.202Z,35.45
2023-03-21T09:32:57.841Z,35.46
2023-03-21T09:33:09.414Z,35.46
2023-03-21T09:33:20.731Z,35.47
2023-03-21T09:33:32.334Z,35.46
2023-03-21T09:33:43.651Z,35.46
2023-03-21T09:33:55.269Z,35.48
2023-03-21T09:34:06.666Z,35.46
2023-03-21T09:34:18.276Z,35.46
2023-03-21T09:34:29.866Z,35.48
2023-03-21T09:34:41.507Z,35.46
2023-03-21T09:34:52.810Z,35.47
2023-03-21T09:35:04.379Z,35.48
2023-03-21T09:35:15.732Z,35.45
2023-03-21T09:35:27.344Z,35.46
2023-03-21T09:35:38.964Z,35.46
2023-03-21T09:35:51.896Z,35.47
2023-03-21T09:36:01.486Z,35.43
2023-03-21T09:36:13.116Z,35.46
2023-03-21T09:36:24.501Z,35.44
2023-03-21T09:36:36.068Z,35.48
2023-03-21T09:36:47.400Z,35.45
2023-03-21T09:36:58.990Z,35.49
2023-03-21T09:37:10.322Z,35.46
2023-03-21T09:37:21.911Z,35.45
2023-03-21T09:37:33.239Z,35.45
2023-03-21T09:37:44.848Z,35.45
2023-03-21T09:37:56.190Z,35.45
2023-03-21T09:38:07.778Z,35.47
2023-03-21T09:38:19.116Z,35.47
2023-03-21T09:38:30.708Z,35.45
2023-03-21T09:38:42.020Z,35.44
2023-03-21T09:38:53.634Z,35.44
2023-03-21T09:39:04.973Z,35.44
2023-03-21T09:39:16.558Z,35.44
2023-03-21T09:39:27.904Z,35.45
2023-03-21T09:39:39.506Z,35.43
2023-03-21T09:39:50.840Z,35.46
2023-03-21T09:40:02.479Z,35.45
2023-03-21T09:40:13.910Z,35.42
2023-03-21T09:40:25.504Z,35.44
2023-03-21T09:40:36.821Z,35.44
2023-03-21T09:40:48.428Z,35.44
2023-03-21T09:40:59.849Z,35.45
2023-03-21T09:41:11.481Z,35.45
2023-03-21T09:41:22.836Z,35.45
2023-03-21T09:41:34.440Z,35.42
2023-03-21T09:41:45.772Z,35.44
2023-03-21T09:41:57.373Z,35.42
2023-03-21T09:42:08.699Z,35.44
2023-03-21T09:42:20.288Z,35.42
2023-03-21T09:42:31.635Z,35.43
2023-03-21T09:42:43.201Z,35.43
2023-03-21T09:42:54.514Z,35.43
2023-03-21T09:43:06.241Z,35.43
2023-03-21T09:43:17.578Z,35.45
2023-03-21T09:43:29.162Z,35.43
2023-03-21T09:43:40.491Z,35.41
2023-03-21T09:43:52.059Z,35.43
2023-03-21T09:44:03.412Z,35.43
2023-03-21T09:44:14.989Z,35.41
2023-03-21T09:44:26.329Z,35.43
2023-03-21T09:44:37.964Z,35.43
2023-03-21T09:44:49.279Z,35.43
2023-03-21T09:45:00.891Z,35.42
2023-03-21T09:45:12.252Z,35.42
2023-03-21T09:45:23.838Z,35.42
2023-03-21T09:45:35.452Z,35.42
2023-03-21T09:45:47.196Z,35.43
2023-03-21T09:45:58.533Z,35.41
2023-03-21T09:46:10.165Z,35.42
2023-03-21T09:46:21.502Z,35.42
2023-03-21T09:46:33.110Z,35.43
2023-03-21T09:46:44.480Z,35.40
2023-03-21T09:46:56.117Z,35.44
2023-03-21T09:47:07.421Z,35.43
2023-03-21T09:47:19.198Z,35.41
2023-03-21T09:47:30.518Z,35.43
2023-03-21T09:47:42.120Z,35.42
2023-03-21T09:47:53.652Z,35.43
2023-03-21T09:48:05.298Z,35.42
2023-03-21T09:48:16.666Z,35.42
2023-03-21T09:48:28.288Z,35.41
2023-03-21T09:48:47.179Z,35.43
2023-03-21T09:48:57.126Z,35.57
2023-03-21T09:49:03.584Z,35.55
2023-03-21T09:49:14.911Z,35.49
2023-03-21T09:49:26.537Z,35.46
2023-03-21T09:49:37.857Z,35.45
2023-03-21T09:49:49.489Z,35.42
2023-03-21T09:50:13.475Z,35.43
2023-03-21T09:50:15.031Z,35.56
2023-03-21T09:50:24.491Z,35.52
2023-03-21T09:50:36.136Z,35.47
2023-03-21T09:50:47.436Z,35.43
2023-03-21T09:50:59.017Z,35.44
2023-03-21T09:51:10.364Z,35.43
2023-03-21T09:51:21.942Z,35.41
2023-03-21T09:51:33.316Z,35.43
2023-03-21T09:51:44.902Z,35.41
2023-03-21T09:51:56.234Z,35.44
2023-03-21T09:52:07.950Z,35.42
2023-03-21T09:52:19.245Z,35.44
2023-03-21T09:52:30.825Z,35.44
2023-03-21T09:52:42.154Z,35.44
2023-03-21T09:52:53.760Z,35.42
2023-03-21T09:53:05.081Z,35.42
2023-03-21T09:53:16.697Z,35.43
2023-03-21T09:53:28.249Z,35.42
2023-03-21T09:53:39.818Z,35.42
2023-03-21T09:53:51.172Z,35.43
2023-03-21T09:54:02.771Z,35.44
2023-03-21T09:54:14.101Z,35.43
2023-03-21T09:54:25.694Z,35.42
2023-03-21T09:54:37.018Z,35.42
2023-03-21T09:54:48.614Z,35.42
2023-03-21T09:54:59.970Z,35.40
2023-03-21T09:55:11.557Z,35.42
2023-03-21T09:55:22.890Z,35.43
2023-03-21T09:55:34.475Z,35.43
2023-03-21T09:55:45.799Z,35.41
2023-03-21T09:55:57.391Z,35.41
2023-03-21T09:56:08.709Z,35.40
2023-03-21T09:56:20.299Z,35.40
2023-03-21T09:56:31.651Z,35.40
2023-03-21T09:56:43.255Z,35.40
2023-03-21T09:56:54.599Z,35.42
2023-03-21T09:57:06.166Z,35.40
2023-03-21T09:57:17.570Z,35.40
2023-03-21T09:57:29.139Z,35.40
2023-03-21T09:57:40.491Z,35.40
2023-03-21T09:57:52.086Z,35.40
2023-03-21T09:58:03.394Z,35.40
2023-03-21T09:58:14.983Z,35.39
2023-03-21T09:58:26.323Z,35.37
2023-03-21T09:58:37.891Z,35.39
2023-03-21T09:58:49.242Z,35.39
2023-03-21T09:59:00.852Z,35.41
2023-03-21T09:59:12.191Z,35.39
2023-03-21T09:59:23.792Z,35.41
2023-03-21T09:59:35.854Z,35.41
2023-03-21T09:59:47.434Z,35.42
2023-03-21T09:59:58.790Z,35.43
2023-03-21T10:00:10.368Z,35.40
2023-03-21T10:00:21.694Z,35.41
2023-03-21T10:00:33.322Z,35.39
2023-03-21T10:00:44.771Z,35.40
2023-03-21T10:00:56.440Z,35.43
2023-03-21T10:01:07.820Z,35.41
2023-03-21T10:01:19.458Z,35.41
2023-03-21T10:01:30.802Z,35.42
2023-03-21T10:01:42.396Z,35.40
2023-03-21T10:01:53.753Z,35.39
2023-03-21T10:02:05.340Z,35.37
2023-03-21T10:02:16.673Z,35.40
2023-03-21T10:02:28.253Z,35.37
2023-03-21T10:02:39.595Z,35.38
2023-03-21T10:02:51.193Z,35.37
2023-03-21T10:03:02.511Z,35.39
2023-03-21T10:03:14.100Z,35.34
2023-03-21T10:03:25.436Z,35.37
2023-03-21T10:03:37.046Z,35.36
2023-03-21T10:03:48.383Z,35.38
2023-03-21T10:04:00.010Z,35.37
2023-03-21T10:04:11.412Z,35.38
2023-03-21T10:04:23.050Z,35.37
2023-03-21T10:04:34.397Z,35.36
2023-03-21T10:04:46.068Z,35.36
2023-03-21T10:04:57.390Z,35.36
2023-03-21T10:05:09.004Z,35.33
2023-03-21T10:05:20.296Z,35.37
2023-03-21T10:05:31.938Z,35.34
2023-03-21T10:05:43.262Z,35.35
2023-03-21T10:05:54.855Z,35.34
2023-03-21T10:06:06.199Z,35.34
2023-03-21T10:06:17.794Z,35.34
2023-03-21T10:06:29.123Z,35.36
2023-03-21T10:06:40.815Z,35.35
2023-03-21T10:06:52.174Z,35.34
2023-03-21T10:07:03.743Z,35.36
2023-03-21T10:07:15.053Z,35.32
2023-03-21T10:07:26.642Z,35.34
2023-03-21T10:07:38.009Z,35.37
2023-03-21T10:07:49.625Z,35.36
2023-03-21T10:08:00.973Z,35.34
2023-03-21T10:08:12.575Z,35.33
2023-03-21T10:08:23.915Z,35.33
2023-03-21T10:08:35.570Z,35.33
2023-03-21T10:08:47.000Z,35.33
2023-03-21T10:08:58.580Z,35.33
2023-03-21T10:09:09.924Z,35.33
2023-03-21T10:09:21.555Z,35.33
2023-03-21T10:09:32.884Z,35.33
2023-03-21T10:09:44.499Z,35.32
2023-03-21T10:09:55.868Z,35.33
2023-03-21T10:10:07.497Z,35.34
2023-03-21T10:10:18.826Z,35.34
2023-03-21T10:10:30.413Z,35.33
2023-03-21T10:10:41.778Z,35.33
2023-03-21T10:10:53.578Z,35.34
2023-03-21T10:11:04.875Z,35.34
2023-03-21T10:11:16.454Z,35.32
2023-03-21T10:11:27.780Z,35.36
2023-03-21T10:11:39.392Z,35.32
2023-03-21T10:11:50.787Z,35.33
2023-03-21T10:12:02.393Z,35.35
2023-03-21T10:12:13.730Z,35.34
2023-03-21T10:12:25.312Z,35.32
2023-03-21T10:12:36.666Z,35.32
2023-03-21T10:12:48.250Z,35.35
2023-03-21T10:12:59.584Z,35.34
2023-03-21T10:13:11.170Z,35.34
2023-03-21T10:13:22.485Z,35.34
2023-03-21T10:13:34.100Z,35.34
2023-03-21T10:13:45.596Z,35.34
2023-03-21T10:13:57.206Z,35.33
2023-03-21T10:14:08.546Z,35.35
2023-03-21T10:14:20.160Z,35.34
2023-03-21T10:14:31.505Z,35.32
2023-03-21T10:14:43.083Z,35.33
2023-03-21T10:14:57.135Z,35.33
2023-03-21T10:15:04.630Z,35.44
2023-03-21T10:15:15.970Z,35.40
2023-03-21T10:15:27.551Z,35.37
2023-03-21T10:15:39.151Z,35.35
2023-03-21T10:15:50.907Z,35.35
2023-03-21T10:16:02.309Z,35.35
2023-03-21T10:16:13.955Z,35.35
2023-03-21T10:16:25.332Z,35.35
2023-03-21T10:16:36.939Z,35.36
2023-03-21T10:16:48.283Z,35.35
2023-03-21T10:16:59.839Z,35.36
2023-03-21T10:17:11.165Z,35.34
2023-03-21T10:17:22.755Z,35.34
2023-03-21T10:17:34.104Z,35.36
2023-03-21T10:17:45.692Z,35.34
2023-03-21T10:17:57.021Z,35.34
2023-03-21T10:18:08.608Z,35.34
2023-03-21T10:18:19.969Z,35.35
2023-03-21T10:18:31.561Z,35.33
2023-03-21T10:18:42.890Z,35.34
2023-03-21T10:18:54.507Z,35.34
2023-03-21T10:19:05.863Z,35.34
2023-03-21T10:19:17.460Z,35.34
2023-03-21T10:19:28.799Z,35.34
2023-03-21T10:19:40.406Z,35.34
2023-03-21T10:19:51.749Z,35.35
2023-03-21T10:20:03.332Z,35.35
2023-03-21T10:20:14.701Z,35.35
2023-03-21T10:20:26.277Z,35.35
2023-03-21T10:20:37.633Z,35.33
2023-03-21T10:20:49.213Z,35.34
2023-03-21T10:21:00.722Z,35.33
2023-03-21T10:21:12.284Z,35.34
2023-03-21T10:21:51.427Z,35.35
2023-03-21T10:21:59.333Z,35.48
2023-03-21T10:22:00.252Z,35.49
2023-03-21T10:22:01.747Z,35.49
2023-03-21T10:22:10.051Z,35.43
2023-03-21T10:22:21.380Z,35.43
2023-03-21T10:22:32.989Z,35.38
2023-03-21T10:22:44.323Z,35.38
2023-03-21T10:22:55.911Z,35.38
2023-03-21T10:23:07.234Z,35.36
2023-03-21T10:23:18.832Z,35.36
2023-03-21T10:23:30.154Z,35.36
2023-03-21T10:23:41.750Z,35.34
2023-03-21T10:23:53.096Z,35.35
2023-03-21T10:24:04.701Z,35.36
2023-03-21T10:24:16.039Z,35.38
2023-03-21T10:24:27.653Z,35.36
2023-03-21T10:24:38.973Z,35.35
2023-03-21T10:24:50.554Z,35.37
2023-03-21T10:25:02.097Z,35.36
2023-03-21T10:25:13.658Z,35.36
2023-03-21T10:25:25.015Z,35.37
2023-03-21T10:25:36.965Z,35.36
2023-03-21T10:25:48.786Z,35.37
2023-03-21T10:26:00.169Z,35.34
2023-03-21T10:26:14.909Z,35.36
2023-03-21T10:26:23.714Z,35.45
2023-03-21T10:26:35.066Z,35.41
2023-03-21T10:26:46.654Z,35.38
2023-03-21T10:26:58.007Z,35.36
2023-03-21T10:27:09.606Z,35.36
2023-03-21T10:27:20.943Z,35.38
2023-03-21T10:27:32.505Z,35.38
2023-03-21T10:27:43.857Z,35.38
2023-03-21T10:27:55.443Z,35.37
2023-03-21T10:28:06.763Z,35.35
2023-03-21T10:28:18.347Z,35.37
2023-03-21T10:28:32.690Z,35.35
2023-03-21T10:28:52.510Z,35.51
2023-03-21T10:28:53.830Z,35.49
2023-03-21T10:29:05.199Z,35.43
2023-03-21T10:29:16.873Z,35.38
2023-03-21T10:29:28.363Z,35.37
2023-03-21T10:29:40.070Z,35.35
2023-03-21T10:29:51.378Z,35.34
2023-03-21T10:30:02.962Z,35.34
2023-03-21T10:30:14.300Z,35.34
2023-03-21T10:30:25.887Z,35.32
2023-03-21T10:30:37.254Z,35.34
2023-03-21T10:30:48.850Z,35.32
2023-03-21T10:31:00.173Z,35.34
2023-03-21T10:31:11.792Z,35.32
2023-03-21T10:31:23.184Z,35.31
2023-03-21T10:31:34.848Z,35.31
2023-03-21T10:31:46.366Z,35.33
2023-03-21T10:31:58.038Z,35.30
2023-03-21T10:32:09.466Z,35.34
2023-03-21T10:32:21.106Z,35.33
2023-03-21T10:32:32.450Z,35.31
2023-03-21T10:32:44.107Z,35.32
2023-03-21T10:32:56.834Z,35.31
2023-03-21T10:33:07.001Z,35.37
2023-03-21T10:33:18.723Z,35.34
2023-03-21T10:33:30.063Z,35.35
2023-03-21T10:33:41.672Z,35.31
2023-03-21T10:33:52.997Z,35.31
2023-03-21T10:34:04.578Z,35.31
2023-03-21T10:34:15.887Z,35.30
2023-03-21T10:34:27.469Z,35.31
2023-03-21T10:34:38.796Z,35.32
2023-03-21T10:34:50.380Z,35.29
2023-03-21T10:35:01.738Z,35.31
2023-03-21T10:35:13.316Z,35.30
2023-03-21T10:35:24.680Z,35.30
2023-03-21T10:35:36.555Z,35.31
2023-03-21T10:35:48.353Z,35.29
2023-03-21T10:35:59.738Z,35.31
2023-03-21T10:36:11.378Z,35.29
2023-03-21T10:36:22.838Z,35.31
2023-03-21T10:36:34.446Z,35.30
2023-03-21T10:36:45.832Z,35.31
2023-03-21T10:36:57.390Z,35.32
2023-03-21T10:37:08.742Z,35.33
2023-03-21T10:37:20.358Z,35.31
2023-03-21T10:37:31.669Z,35.32
2023-03-21T10:37:43.237Z,35.32
2023-03-21T10:37:54.562Z,35.30
2023-03-21T10:38:06.161Z,35.33
2023-03-21T10:38:17.465Z,35.31
2023-03-21T10:38:29.056Z,35.32
2023-03-21T10:38:40.394Z,35.33
2023-03-21T10:38:51.992Z,35.30
2023-03-21T10:39:03.313Z,35.32
2023-03-21T10:39:14.907Z,35.29
2023-03-21T10:39:26.224Z,35.32
2023-03-21T10:39:37.817Z,35.30
2023-03-21T10:39:49.149Z,35.29
2023-03-21T10:40:00.729Z,35.28
2023-03-21T10:40:12.050Z,35.33
2023-03-21T10:40:23.627Z,35.29
2023-03-21T10:40:35.614Z,35.29
2023-03-21T10:40:47.325Z,35.33
2023-03-21T10:40:58.640Z,35.29
2023-03-21T10:41:10.229Z,35.30
2023-03-21T10:41:21.561Z,35.30
2023-03-21T10:41:33.150Z,35.29
2023-03-21T10:41:44.482Z,35.30
2023-03-21T10:41:56.093Z,35.29
2023-03-21T10:42:07.420Z,35.29
2023-03-21T10:42:18.997Z,35.29
2023-03-21T10:42:30.315Z,35.29
2023-03-21T10:42:41.925Z,35.28
2023-03-21T10:42:53.270Z,35.29
2023-03-21T10:43:04.864Z,35.27
2023-03-21T10:43:16.201Z,35.28
2023-03-21T10:43:27.771Z,35.28
2023-03-21T10:43:39.123Z,35.28
2023-03-21T10:43:50.715Z,35.28
2023-03-21T10:44:02.041Z,35.29
2023-03-21T10:44:13.691Z,35.28
2023-03-21T10:44:24.993Z,35.30
2023-03-21T10:44:36.585Z,35.29
2023-03-21T10:44:47.905Z,35.29
2023-03-21T10:44:59.497Z,35.28
2023-03-21T10:45:10.858Z,35.27
2023-03-21T10:45:22.457Z,35.27
2023-03-21T10:45:33.829Z,35.29
2023-03-21T10:45:45.456Z,35.29
2023-03-21T10:45:56.945Z,35.29
2023-03-21T10:46:08.701Z,35.30
2023-03-21T10:46:20.141Z,35.29
2023-03-21T10:46:34.795Z,35.33
2023-03-21T10:46:43.248Z,35.35
2023-03-21T10:46:54.998Z,35.33
2023-03-21T10:47:06.914Z,35.31
2023-03-21T10:47:18.567Z,35.31
2023-03-21T10:47:30.498Z,35.30
2023-03-21T10:47:42.222Z,35.31
2023-03-21T10:47:54.154Z,35.29
2023-03-21T10:48:05.700Z,35.29
2023-03-21T10:48:17.564Z,35.28
2023-03-21T10:48:29.082Z,35.31
2023-03-21T10:48:40.851Z,35.31
2023-03-21T10:48:52.345Z,35.30
2023-03-21T10:49:04.077Z,35.32
2023-03-21T10:49:15.398Z,35.29
2023-03-21T10:49:26.982Z,35.28
2023-03-21T10:50:05.758Z,35.31
2023-03-21T10:50:06.515Z,35.44
2023-03-21T10:50:07.817Z,35.43
2023-03-21T10:50:14.437Z,35.45
2023-03-21T10:50:25.899Z,35.37
2023-03-21T10:50:37.565Z,35.33
2023-03-21T10:50:48.908Z,35.34
2023-03-21T10:51:00.557Z,35.32
2023-03-21T10:51:11.892Z,35.32
2023-03-21T10:51:23.497Z,35.31
2023-03-21T10:51:34.835Z,35.32
2023-03-21T10:51:47.305Z,35.31
2023-03-21T10:51:56.527Z,35.28
2023-03-21T10:52:08.102Z,35.29
2023-03-21T10:52:19.418Z,35.31
2023-03-21T10:52:30.982Z,35.32
2023-03-21T10:52:42.349Z,35.31
2023-03-21T10:52:53.941Z,35.31
2023-03-21T10:53:05.299Z,35.31
2023-03-21T10:53:16.896Z,35.32
2023-03-21T10:53:28.212Z,35.30
2023-03-21T10:53:39.799Z,35.29
2023-03-21T10:53:51.155Z,35.31
2023-03-21T10:54:02.796Z,35.31
2023-03-21T10:54:14.163Z,35.31
2023-03-21T10:54:25.780Z,35.32
2023-03-21T10:54:37.111Z,35.30
2023-03-21T10:54:48.725Z,35.33
2023-03-21T10:55:00.114Z,35.32
2023-03-21T10:55:11.743Z,35.32
2023-03-21T10:55:23.084Z,35.32
2023-03-21T10:55:34.700Z,35.31
2023-03-21T10:55:46.015Z,35.32
2023-03-21T10:55:57.606Z,35.31
2023-03-21T10:56:08.995Z,35.31
2023-03-21T10:56:20.588Z,35.30
2023-03-21T10:56:32.027Z,35.30
2023-03-21T10:56:43.609Z,35.31
2023-03-21T10:56:54.928Z,35.32
2023-03-21T10:57:06.507Z,35.31
2023-03-21T10:57:17.834Z,35.33
2023-03-21T10:57:29.422Z,35.31
2023-03-21T10:57:40.771Z,35.34
2023-03-21T10:57:52.335Z,35.30
2023-03-21T10:58:03.675Z,35.31
2023-03-21T10:58:15.257Z,35.32
2023-03-21T10:58:26.580Z,35.34
2023-03-21T10:58:38.173Z,35.33
2023-03-21T10:58:49.500Z,35.30
2023-03-21T10:59:01.098Z,35.33
2023-03-21T10:59:12.426Z,35.31
2023-03-21T10:59:24.029Z,35.31
2023-03-21T10:59:35.380Z,35.33
2023-03-21T10:59:46.940Z,35.33
2023-03-21T10:59:58.278Z,35.31
2023-03-21T11:00:09.886Z,35.32
2023-03-21T11:00:21.264Z,35.32
2023-03-21T11:00:32.873Z,35.32
2023-03-21T11:00:44.194Z,35.31
2023-03-21T11:00:55.825Z,35.32
2023-03-21T11:01:07.286Z,35.32
2023-03-21T11:01:18.928Z,35.30
2023-03-21T11:01:30.290Z,35.33
2023-03-21T11:01:42.066Z,35.32
2023-03-21T11:01:53.388Z,35.35
2023-03-21T11:02:05.059Z,35.33
2023-03-21T11:02:16.435Z,35.32